sensor_id;sensor_type;location;lat;lon;timestamp;temperature;humidity
40253;DHT22;25972;51.854;4.534;2023-05-25T00:02:08;11.50;99.90
40253;DHT22;25972;51.854;4.534;2023-05-25T00:04:33;11.40;99.90
40253;DHT22;25972;51.854;4.534;2023-05-25T00:07:00;11.40;99.90
40253;DHT22;25972;51.854;4.534;2023-05-25T00:09:26;11.40;99.90
40253;DHT22;25972;51.854;4.534;2023-05-25T00:11:51;11.40;99.90
40253;DHT22;25972;51.854;4.534;2023-05-25T00:14:19;11.40;99.90
40253;DHT22;25972;51.854;4.534;2023-05-25T00:16:45;11.40;99.90
40253;DHT22;25972;51.854;4.534;2023-05-25T00:19:13;11.40;99.90
40253;DHT22;25972;51.854;4.534;2023-05-25T00:21:43;11.30;99.90
40253;DHT22;25972;51.854;4.534;2023-05-25T00:24:13;11.30;99.90
40253;DHT22;25972;51.854;4.534;2023-05-25T00:26:38;11.30;99.90
40253;DHT22;25972;51.854;4.534;2023-05-25T00:29:05;11.30;99.90
40253;DHT22;25972;51.854;4.534;2023-05-25T00:31:31;11.30;99.90
40253;DHT22;25972;51.854;4.534;2023-05-25T00:33:58;11.30;99.90
40253;DHT22;25972;51.854;4.534;2023-05-25T00:36:25;11.30;99.90
40253;DHT22;25972;51.854;4.534;2023-05-25T00:38:50;11.30;99.90
40253;DHT22;25972;51.854;4.534;2023-05-25T00:41:17;11.30;99.90
40253;DHT22;25972;51.854;4.534;2023-05-25T00:43:46;11.20;99.90
40253;DHT22;25972;51.854;4.534;2023-05-25T00:46:14;11.20;99.90
40253;DHT22;25972;51.854;4.534;2023-05-25T00:48:41;11.20;99.90
40253;DHT22;25972;51.854;4.534;2023-05-25T00:51:09;11.20;99.90
40253;DHT22;25972;51.854;4.534;2023-05-25T00:53:35;11.20;99.90
40253;DHT22;25972;51.854;4.534;2023-05-25T00:56:21;11.20;99.90
40253;DHT22;25972;51.854;4.534;2023-05-25T00:58:53;11.20;99.90
40253;DHT22;25972;51.854;4.534;2023-05-25T01:01:21;11.20;99.90
40253;DHT22;25972;51.854;4.534;2023-05-25T01:03:50;11.30;99.90
40253;DHT22;25972;51.854;4.534;2023-05-25T01:06:20;11.20;99.90
40253;DHT22;25972;51.854;4.534;2023-05-25T01:08:56;11.20;99.90
40253;DHT22;25972;51.854;4.534;2023-05-25T01:11:30;11.20;99.90
40253;DHT22;25972;51.854;4.534;2023-05-25T01:13:57;11.20;99.90
40253;DHT22;25972;51.854;4.534;2023-05-25T01:16:25;11.10;99.90
40253;DHT22;25972;51.854;4.534;2023-05-25T01:18:53;11.10;99.90
40253;DHT22;25972;51.854;4.534;2023-05-25T01:21:24;11.10;99.90
40253;DHT22;25972;51.854;4.534;2023-05-25T01:24:21;11.10;99.90
40253;DHT22;25972;51.854;4.534;2023-05-25T01:27:06;11.10;99.90
40253;DHT22;25972;51.854;4.534;2023-05-25T01:29:39;11.00;99.90
40253;DHT22;25972;51.854;4.534;2023-05-25T01:32:07;11.00;99.90
40253;DHT22;25972;51.854;4.534;2023-05-25T01:34:35;11.00;99.90
40253;DHT22;25972;51.854;4.534;2023-05-25T01:37:01;11.00;99.90
40253;DHT22;25972;51.854;4.534;2023-05-25T01:39:27;11.00;99.90
40253;DHT22;25972;51.854;4.534;2023-05-25T01:41:53;10.90;99.90
40253;DHT22;25972;51.854;4.534;2023-05-25T01:44:19;10.90;99.90
40253;DHT22;25972;51.854;4.534;2023-05-25T01:46:50;10.90;99.90
40253;DHT22;25972;51.854;4.534;2023-05-25T01:49:36;10.90;99.90
40253;DHT22;25972;51.854;4.534;2023-05-25T01:54:46;10.90;99.90
40253;DHT22;25972;51.854;4.534;2023-05-25T01:57:16;10.90;99.90
40253;DHT22;25972;51.854;4.534;2023-05-25T01:59:46;10.90;99.90
40253;DHT22;25972;51.854;4.534;2023-05-25T02:02:16;10.90;99.90
40253;DHT22;25972;51.854;4.534;2023-05-25T02:04:43;10.80;99.90
40253;DHT22;25972;51.854;4.534;2023-05-25T02:07:09;10.90;99.90
40253;DHT22;25972;51.854;4.534;2023-05-25T02:09:36;10.80;99.90
40253;DHT22;25972;51.854;4.534;2023-05-25T02:12:04;10.80;99.90
40253;DHT22;25972;51.854;4.534;2023-05-25T02:14:31;10.80;99.90
40253;DHT22;25972;51.854;4.534;2023-05-25T02:16:57;10.80;99.90
40253;DHT22;25972;51.854;4.534;2023-05-25T02:19:27;10.80;99.90
40253;DHT22;25972;51.854;4.534;2023-05-25T02:21:55;10.80;99.90
40253;DHT22;25972;51.854;4.534;2023-05-25T02:24:23;10.70;99.90
40253;DHT22;25972;51.854;4.534;2023-05-25T02:26:50;10.70;99.90
40253;DHT22;25972;51.854;4.534;2023-05-25T02:29:16;10.70;99.90
40253;DHT22;25972;51.854;4.534;2023-05-25T02:31:43;10.70;99.90
40253;DHT22;25972;51.854;4.534;2023-05-25T02:34:10;10.70;99.90
40253;DHT22;25972;51.854;4.534;2023-05-25T02:36:39;10.70;99.90
40253;DHT22;25972;51.854;4.534;2023-05-25T02:39:10;10.70;99.90
40253;DHT22;25972;51.854;4.534;2023-05-25T02:41:38;10.70;99.90
40253;DHT22;25972;51.854;4.534;2023-05-25T02:44:09;10.70;99.90
40253;DHT22;25972;51.854;4.534;2023-05-25T02:46:35;10.70;99.90
40253;DHT22;25972;51.854;4.534;2023-05-25T02:49:01;10.60;99.90
40253;DHT22;25972;51.854;4.534;2023-05-25T02:51:28;10.60;99.90
40253;DHT22;25972;51.854;4.534;2023-05-25T02:53:56;10.60;99.90
40253;DHT22;25972;51.854;4.534;2023-05-25T02:56:22;10.60;99.90
40253;DHT22;25972;51.854;4.534;2023-05-25T02:58:49;10.60;99.90
40253;DHT22;25972;51.854;4.534;2023-05-25T03:01:28;10.60;99.90
40253;DHT22;25972;51.854;4.534;2023-05-25T03:03:55;10.60;99.90
40253;DHT22;25972;51.854;4.534;2023-05-25T03:06:24;10.50;99.90
40253;DHT22;25972;51.854;4.534;2023-05-25T03:08:55;10.50;99.90
40253;DHT22;25972;51.854;4.534;2023-05-25T03:11:21;10.50;99.90
40253;DHT22;25972;51.854;4.534;2023-05-25T03:13:50;10.50;99.90
40253;DHT22;25972;51.854;4.534;2023-05-25T03:16:17;10.50;99.90
40253;DHT22;25972;51.854;4.534;2023-05-25T03:18:43;10.50;99.90
40253;DHT22;25972;51.854;4.534;2023-05-25T03:21:09;10.40;99.90
40253;DHT22;25972;51.854;4.534;2023-05-25T03:23:37;10.40;99.90
40253;DHT22;25972;51.854;4.534;2023-05-25T03:26:08;10.40;99.90
40253;DHT22;25972;51.854;4.534;2023-05-25T03:28:38;10.40;99.90
40253;DHT22;25972;51.854;4.534;2023-05-25T03:31:04;10.40;99.90
40253;DHT22;25972;51.854;4.534;2023-05-25T03:33:35;10.30;99.90
40253;DHT22;25972;51.854;4.534;2023-05-25T03:36:05;10.30;99.90
40253;DHT22;25972;51.854;4.534;2023-05-25T03:38:32;10.30;99.90
40253;DHT22;25972;51.854;4.534;2023-05-25T03:40:59;10.30;99.90
40253;DHT22;25972;51.854;4.534;2023-05-25T03:43:26;10.30;99.90
40253;DHT22;25972;51.854;4.534;2023-05-25T03:45:52;10.20;99.90
40253;DHT22;25972;51.854;4.534;2023-05-25T03:48:18;10.20;99.90
40253;DHT22;25972;51.854;4.534;2023-05-25T03:50:48;10.20;99.90
40253;DHT22;25972;51.854;4.534;2023-05-25T03:53:16;10.20;99.90
40253;DHT22;25972;51.854;4.534;2023-05-25T03:55:42;10.20;99.90
40253;DHT22;25972;51.854;4.534;2023-05-25T03:58:11;10.20;99.90
40253;DHT22;25972;51.854;4.534;2023-05-25T04:00:39;10.20;99.90
40253;DHT22;25972;51.854;4.534;2023-05-25T04:03:06;10.20;99.90
40253;DHT22;25972;51.854;4.534;2023-05-25T04:05:35;10.20;99.90
40253;DHT22;25972;51.854;4.534;2023-05-25T04:08:03;10.20;99.90
40253;DHT22;25972;51.854;4.534;2023-05-25T04:10:29;10.20;99.90
40253;DHT22;25972;51.854;4.534;2023-05-25T04:12:55;10.30;99.90
40253;DHT22;25972;51.854;4.534;2023-05-25T04:15:22;10.30;99.90
40253;DHT22;25972;51.854;4.534;2023-05-25T04:18:11;10.30;99.90
40253;DHT22;25972;51.854;4.534;2023-05-25T04:20:58;10.30;99.90
40253;DHT22;25972;51.854;4.534;2023-05-25T04:23:25;10.40;99.90
40253;DHT22;25972;51.854;4.534;2023-05-25T04:25:54;10.40;99.90
40253;DHT22;25972;51.854;4.534;2023-05-25T04:28:20;10.50;99.90
40253;DHT22;25972;51.854;4.534;2023-05-25T04:30:56;10.50;99.90
40253;DHT22;25972;51.854;4.534;2023-05-25T04:33:45;10.60;99.90
40253;DHT22;25972;51.854;4.534;2023-05-25T04:36:18;10.60;99.90
40253;DHT22;25972;51.854;4.534;2023-05-25T04:38:50;10.70;99.90
40253;DHT22;25972;51.854;4.534;2023-05-25T04:41:25;10.70;99.90
40253;DHT22;25972;51.854;4.534;2023-05-25T04:43:57;10.80;99.90
40253;DHT22;25972;51.854;4.534;2023-05-25T04:46:24;10.90;99.90
40253;DHT22;25972;51.854;4.534;2023-05-25T04:48:50;11.00;99.90
40253;DHT22;25972;51.854;4.534;2023-05-25T04:51:19;11.00;99.90
40253;DHT22;25972;51.854;4.534;2023-05-25T04:53:45;11.00;99.90
40253;DHT22;25972;51.854;4.534;2023-05-25T04:56:11;11.10;99.90
40253;DHT22;25972;51.854;4.534;2023-05-25T04:58:39;11.10;99.90
40253;DHT22;25972;51.854;4.534;2023-05-25T05:01:09;11.20;99.90
40253;DHT22;25972;51.854;4.534;2023-05-25T05:03:35;11.40;99.90
40253;DHT22;25972;51.854;4.534;2023-05-25T05:06:03;12.30;99.90
40253;DHT22;25972;51.854;4.534;2023-05-25T05:08:30;13.70;99.90
40253;DHT22;25972;51.854;4.534;2023-05-25T05:10:56;14.90;99.90
40253;DHT22;25972;51.854;4.534;2023-05-25T05:13:26;16.00;99.90
40253;DHT22;25972;51.854;4.534;2023-05-25T05:15:53;16.70;99.90
40253;DHT22;25972;51.854;4.534;2023-05-25T05:18:19;17.20;99.90
40253;DHT22;25972;51.854;4.534;2023-05-25T05:20:45;17.60;99.90
40253;DHT22;25972;51.854;4.534;2023-05-25T05:23:12;18.20;99.90
40253;DHT22;25972;51.854;4.534;2023-05-25T05:25:37;18.80;99.90
40253;DHT22;25972;51.854;4.534;2023-05-25T05:28:03;19.00;99.90
40253;DHT22;25972;51.854;4.534;2023-05-25T05:30:34;19.20;99.90
40253;DHT22;25972;51.854;4.534;2023-05-25T05:33:00;19.70;99.90
40253;DHT22;25972;51.854;4.534;2023-05-25T05:35:30;20.10;99.90
40253;DHT22;25972;51.854;4.534;2023-05-25T05:38:04;20.30;60.80
40253;DHT22;25972;51.854;4.534;2023-05-25T05:40:30;20.60;15.10
40253;DHT22;25972;51.854;4.534;2023-05-25T05:42:56;20.50;1.00
40253;DHT22;25972;51.854;4.534;2023-05-25T05:45:22;20.40;1.00
40253;DHT22;25972;51.854;4.534;2023-05-25T05:47:48;20.60;1.00
40253;DHT22;25972;51.854;4.534;2023-05-25T05:50:14;20.60;1.00
40253;DHT22;25972;51.854;4.534;2023-05-25T05:52:40;21.00;1.00
40253;DHT22;25972;51.854;4.534;2023-05-25T05:55:06;21.40;1.00
40253;DHT22;25972;51.854;4.534;2023-05-25T05:57:32;21.60;1.00
40253;DHT22;25972;51.854;4.534;2023-05-25T05:59:59;21.70;1.00
40253;DHT22;25972;51.854;4.534;2023-05-25T06:02:25;21.70;1.00
40253;DHT22;25972;51.854;4.534;2023-05-25T06:04:51;21.30;1.00
40253;DHT22;25972;51.854;4.534;2023-05-25T06:07:17;21.60;1.00
40253;DHT22;25972;51.854;4.534;2023-05-25T06:09:43;21.70;1.00
40253;DHT22;25972;51.854;4.534;2023-05-25T06:12:09;21.70;1.00
40253;DHT22;25972;51.854;4.534;2023-05-25T06:14:35;21.80;1.00
40253;DHT22;25972;51.854;4.534;2023-05-25T06:17:02;21.30;1.00
40253;DHT22;25972;51.854;4.534;2023-05-25T06:19:28;21.10;1.00
40253;DHT22;25972;51.854;4.534;2023-05-25T06:21:54;20.30;1.00
40253;DHT22;25972;51.854;4.534;2023-05-25T06:24:20;19.70;1.00
40253;DHT22;25972;51.854;4.534;2023-05-25T06:26:45;19.60;1.00
40253;DHT22;25972;51.854;4.534;2023-05-25T06:29:12;19.30;1.00
40253;DHT22;25972;51.854;4.534;2023-05-25T06:31:38;18.90;1.00
40253;DHT22;25972;51.854;4.534;2023-05-25T06:34:04;18.60;1.00
40253;DHT22;25972;51.854;4.534;2023-05-25T06:36:30;18.40;1.00
40253;DHT22;25972;51.854;4.534;2023-05-25T06:38:57;18.80;1.00
40253;DHT22;25972;51.854;4.534;2023-05-25T06:41:22;18.70;1.00
40253;DHT22;25972;51.854;4.534;2023-05-25T06:43:48;18.60;1.00
40253;DHT22;25972;51.854;4.534;2023-05-25T06:46:23;18.70;1.00
40253;DHT22;25972;51.854;4.534;2023-05-25T06:48:48;18.60;1.00
40253;DHT22;25972;51.854;4.534;2023-05-25T06:51:14;18.80;1.00
40253;DHT22;25972;51.854;4.534;2023-05-25T06:53:40;18.90;1.00
40253;DHT22;25972;51.854;4.534;2023-05-25T06:56:06;19.00;1.00
40253;DHT22;25972;51.854;4.534;2023-05-25T06:58:32;19.00;1.00
40253;DHT22;25972;51.854;4.534;2023-05-25T07:00:58;18.80;1.00
40253;DHT22;25972;51.854;4.534;2023-05-25T07:03:25;18.60;1.00
40253;DHT22;25972;51.854;4.534;2023-05-25T07:05:51;18.40;1.00
40253;DHT22;25972;51.854;4.534;2023-05-25T07:08:17;18.30;1.00
40253;DHT22;25972;51.854;4.534;2023-05-25T07:10:42;18.00;1.00
40253;DHT22;25972;51.854;4.534;2023-05-25T07:13:09;17.70;1.00
40253;DHT22;25972;51.854;4.534;2023-05-25T07:15:35;17.80;1.00
40253;DHT22;25972;51.854;4.534;2023-05-25T07:18:01;17.70;1.00
40253;DHT22;25972;51.854;4.534;2023-05-25T07:20:27;17.90;1.00
40253;DHT22;25972;51.854;4.534;2023-05-25T07:22:54;18.20;1.00
40253;DHT22;25972;51.854;4.534;2023-05-25T07:25:20;18.40;1.00
40253;DHT22;25972;51.854;4.534;2023-05-25T07:27:49;18.70;1.00
40253;DHT22;25972;51.854;4.534;2023-05-25T07:30:19;18.60;1.00
40253;DHT22;25972;51.854;4.534;2023-05-25T07:32:45;18.80;1.00
40253;DHT22;25972;51.854;4.534;2023-05-25T07:35:11;18.60;1.00
40253;DHT22;25972;51.854;4.534;2023-05-25T07:37:37;18.90;1.00
40253;DHT22;25972;51.854;4.534;2023-05-25T07:40:03;19.30;1.00
40253;DHT22;25972;51.854;4.534;2023-05-25T07:42:29;19.30;1.00
40253;DHT22;25972;51.854;4.534;2023-05-25T07:44:59;19.30;1.00
40253;DHT22;25972;51.854;4.534;2023-05-25T07:47:25;19.10;1.00
40253;DHT22;25972;51.854;4.534;2023-05-25T07:49:51;18.70;1.00
40253;DHT22;25972;51.854;4.534;2023-05-25T07:52:17;18.60;1.00
40253;DHT22;25972;51.854;4.534;2023-05-25T07:54:44;18.70;1.00
40253;DHT22;25972;51.854;4.534;2023-05-25T07:57:10;18.50;1.00
40253;DHT22;25972;51.854;4.534;2023-05-25T07:59:35;18.10;1.00
40253;DHT22;25972;51.854;4.534;2023-05-25T08:02:02;17.80;1.00
40253;DHT22;25972;51.854;4.534;2023-05-25T08:04:29;17.50;1.00
40253;DHT22;25972;51.854;4.534;2023-05-25T08:06:55;17.40;1.00
40253;DHT22;25972;51.854;4.534;2023-05-25T08:09:21;17.30;1.00
40253;DHT22;25972;51.854;4.534;2023-05-25T08:11:47;17.20;1.00
40253;DHT22;25972;51.854;4.534;2023-05-25T08:14:13;17.20;1.00
40253;DHT22;25972;51.854;4.534;2023-05-25T08:16:39;17.30;1.00
40253;DHT22;25972;51.854;4.534;2023-05-25T08:19:05;17.50;1.00
40253;DHT22;25972;51.854;4.534;2023-05-25T08:21:31;17.70;1.00
40253;DHT22;25972;51.854;4.534;2023-05-25T08:23:59;17.60;1.00
40253;DHT22;25972;51.854;4.534;2023-05-25T08:26:29;17.80;1.00
40253;DHT22;25972;51.854;4.534;2023-05-25T08:28:55;17.80;1.00
40253;DHT22;25972;51.854;4.534;2023-05-25T08:31:21;17.80;1.00
40253;DHT22;25972;51.854;4.534;2023-05-25T08:33:47;17.60;1.00
40253;DHT22;25972;51.854;4.534;2023-05-25T08:36:12;17.70;1.00
40253;DHT22;25972;51.854;4.534;2023-05-25T08:38:38;17.70;1.00
40253;DHT22;25972;51.854;4.534;2023-05-25T08:41:05;17.50;1.00
40253;DHT22;25972;51.854;4.534;2023-05-25T08:43:32;17.70;1.00
40253;DHT22;25972;51.854;4.534;2023-05-25T08:46:07;17.80;1.00
40253;DHT22;25972;51.854;4.534;2023-05-25T08:48:34;17.90;1.00
40253;DHT22;25972;51.854;4.534;2023-05-25T08:51:09;17.90;1.00
40253;DHT22;25972;51.854;4.534;2023-05-25T08:53:37;17.70;1.00
40253;DHT22;25972;51.854;4.534;2023-05-25T08:56:15;17.40;1.00
40253;DHT22;25972;51.854;4.534;2023-05-25T08:58:52;17.40;1.00
40253;DHT22;25972;51.854;4.534;2023-05-25T09:01:22;17.90;1.00
40253;DHT22;25972;51.854;4.534;2023-05-25T09:03:53;18.10;1.00
40253;DHT22;25972;51.854;4.534;2023-05-25T09:06:20;18.00;1.00
40253;DHT22;25972;51.854;4.534;2023-05-25T09:08:47;17.90;1.00
40253;DHT22;25972;51.854;4.534;2023-05-25T09:11:14;18.20;1.00
40253;DHT22;25972;51.854;4.534;2023-05-25T09:13:41;18.40;1.00
40253;DHT22;25972;51.854;4.534;2023-05-25T09:16:07;18.50;1.00
40253;DHT22;25972;51.854;4.534;2023-05-25T09:18:33;18.70;1.00
40253;DHT22;25972;51.854;4.534;2023-05-25T09:21:00;18.70;1.00
40253;DHT22;25972;51.854;4.534;2023-05-25T09:23:26;18.70;1.00
40253;DHT22;25972;51.854;4.534;2023-05-25T09:25:52;18.50;1.00
40253;DHT22;25972;51.854;4.534;2023-05-25T09:28:19;18.40;1.00
40253;DHT22;25972;51.854;4.534;2023-05-25T09:30:45;18.10;1.00
40253;DHT22;25972;51.854;4.534;2023-05-25T09:33:11;18.20;1.00
40253;DHT22;25972;51.854;4.534;2023-05-25T09:35:38;18.10;1.00
40253;DHT22;25972;51.854;4.534;2023-05-25T09:38:05;18.30;1.00
40253;DHT22;25972;51.854;4.534;2023-05-25T09:40:34;18.50;1.00
40253;DHT22;25972;51.854;4.534;2023-05-25T09:43:03;18.60;1.00
40253;DHT22;25972;51.854;4.534;2023-05-25T09:45:30;18.60;1.00
40253;DHT22;25972;51.854;4.534;2023-05-25T09:47:57;18.50;1.00
40253;DHT22;25972;51.854;4.534;2023-05-25T09:50:23;18.50;1.00
40253;DHT22;25972;51.854;4.534;2023-05-25T09:52:48;18.70;1.00
40253;DHT22;25972;51.854;4.534;2023-05-25T09:55:16;19.10;1.00
40253;DHT22;25972;51.854;4.534;2023-05-25T09:57:42;19.40;1.00
40253;DHT22;25972;51.854;4.534;2023-05-25T10:00:09;19.20;1.00
40253;DHT22;25972;51.854;4.534;2023-05-25T10:02:40;18.80;1.00
40253;DHT22;25972;51.854;4.534;2023-05-25T10:05:06;18.70;1.00
40253;DHT22;25972;51.854;4.534;2023-05-25T10:07:33;18.70;1.00
40253;DHT22;25972;51.854;4.534;2023-05-25T10:10:05;18.60;1.00
40253;DHT22;25972;51.854;4.534;2023-05-25T10:12:32;18.20;1.00
40253;DHT22;25972;51.854;4.534;2023-05-25T10:15:02;17.90;1.00
40253;DHT22;25972;51.854;4.534;2023-05-25T10:17:30;17.90;1.00
40253;DHT22;25972;51.854;4.534;2023-05-25T10:19:59;18.00;1.00
40253;DHT22;25972;51.854;4.534;2023-05-25T10:22:29;18.40;1.00
40253;DHT22;25972;51.854;4.534;2023-05-25T10:27:55;18.80;1.00
40253;DHT22;25972;51.854;4.534;2023-05-25T10:30:24;19.00;1.00
40253;DHT22;25972;51.854;4.534;2023-05-25T10:32:51;19.10;1.00
40253;DHT22;25972;51.854;4.534;2023-05-25T10:35:18;19.30;1.00
40253;DHT22;25972;51.854;4.534;2023-05-25T10:37:44;19.40;1.00
40253;DHT22;25972;51.854;4.534;2023-05-25T10:40:11;19.60;1.00
40253;DHT22;25972;51.854;4.534;2023-05-25T10:42:38;20.10;1.00
40253;DHT22;25972;51.854;4.534;2023-05-25T10:45:06;19.90;1.00
40253;DHT22;25972;51.854;4.534;2023-05-25T10:47:36;20.00;1.00
40253;DHT22;25972;51.854;4.534;2023-05-25T10:50:03;20.40;1.00
40253;DHT22;25972;51.854;4.534;2023-05-25T10:52:31;20.60;1.00
40253;DHT22;25972;51.854;4.534;2023-05-25T10:55:00;20.70;1.00
40253;DHT22;25972;51.854;4.534;2023-05-25T10:57:28;20.60;1.00
40253;DHT22;25972;51.854;4.534;2023-05-25T11:00:01;20.70;1.00
40253;DHT22;25972;51.854;4.534;2023-05-25T11:02:48;20.90;1.00
40253;DHT22;25972;51.854;4.534;2023-05-25T11:07:57;21.00;1.00
40253;DHT22;25972;51.854;4.534;2023-05-25T11:10:50;21.10;1.00
40253;DHT22;25972;51.854;4.534;2023-05-25T11:18:56;20.40;1.00
40253;DHT22;25972;51.854;4.534;2023-05-25T11:21:40;20.40;1.00
40253;DHT22;25972;51.854;4.534;2023-05-25T11:24:14;20.40;1.00
40253;DHT22;25972;51.854;4.534;2023-05-25T11:26:57;20.40;1.00
40253;DHT22;25972;51.854;4.534;2023-05-25T11:29:30;20.10;1.00
40253;DHT22;25972;51.854;4.534;2023-05-25T11:31:56;20.10;1.00
40253;DHT22;25972;51.854;4.534;2023-05-25T11:34:23;20.10;1.00
40253;DHT22;25972;51.854;4.534;2023-05-25T11:36:55;19.80;1.00
40253;DHT22;25972;51.854;4.534;2023-05-25T11:39:29;19.60;1.00
40253;DHT22;25972;51.854;4.534;2023-05-25T11:42:01;19.60;1.00
40253;DHT22;25972;51.854;4.534;2023-05-25T11:44:29;19.30;1.00
40253;DHT22;25972;51.854;4.534;2023-05-25T11:46:56;19.00;1.00
40253;DHT22;25972;51.854;4.534;2023-05-25T11:49:23;19.00;1.00
40253;DHT22;25972;51.854;4.534;2023-05-25T11:51:50;19.00;1.00
40253;DHT22;25972;51.854;4.534;2023-05-25T11:54:27;19.00;1.00
40253;DHT22;25972;51.854;4.534;2023-05-25T11:56:54;19.20;1.00
40253;DHT22;25972;51.854;4.534;2023-05-25T11:59:27;19.20;1.00
40253;DHT22;25972;51.854;4.534;2023-05-25T12:02:02;19.30;1.00
40253;DHT22;25972;51.854;4.534;2023-05-25T12:04:29;19.30;1.00
40253;DHT22;25972;51.854;4.534;2023-05-25T12:07:04;19.30;1.00
40253;DHT22;25972;51.854;4.534;2023-05-25T12:09:30;19.30;1.00
40253;DHT22;25972;51.854;4.534;2023-05-25T12:11:56;19.50;1.00
40253;DHT22;25972;51.854;4.534;2023-05-25T12:14:22;19.60;1.00
40253;DHT22;25972;51.854;4.534;2023-05-25T12:16:49;19.50;1.00
40253;DHT22;25972;51.854;4.534;2023-05-25T12:19:15;19.50;1.00
40253;DHT22;25972;51.854;4.534;2023-05-25T12:21:42;19.90;1.00
40253;DHT22;25972;51.854;4.534;2023-05-25T12:24:09;20.10;1.00
40253;DHT22;25972;51.854;4.534;2023-05-25T12:26:52;19.70;1.00
40253;DHT22;25972;51.854;4.534;2023-05-25T12:29:27;19.60;1.00
40253;DHT22;25972;51.854;4.534;2023-05-25T12:32:04;19.90;1.00
40253;DHT22;25972;51.854;4.534;2023-05-25T12:34:31;20.00;1.00
40253;DHT22;25972;51.854;4.534;2023-05-25T12:36:57;19.90;1.00
40253;DHT22;25972;51.854;4.534;2023-05-25T12:41:56;19.90;1.00
40253;DHT22;25972;51.854;4.534;2023-05-25T12:44:24;19.80;1.00
40253;DHT22;25972;51.854;4.534;2023-05-25T12:46:51;19.70;1.00
40253;DHT22;25972;51.854;4.534;2023-05-25T12:49:23;19.80;1.00
40253;DHT22;25972;51.854;4.534;2023-05-25T12:51:49;19.80;1.00
40253;DHT22;25972;51.854;4.534;2023-05-25T12:54:15;19.70;1.00
40253;DHT22;25972;51.854;4.534;2023-05-25T12:56:53;19.80;1.00
40253;DHT22;25972;51.854;4.534;2023-05-25T12:59:19;19.70;1.00
40253;DHT22;25972;51.854;4.534;2023-05-25T13:01:45;19.60;1.00
40253;DHT22;25972;51.854;4.534;2023-05-25T13:04:11;19.60;1.00
40253;DHT22;25972;51.854;4.534;2023-05-25T13:06:37;19.70;1.00
40253;DHT22;25972;51.854;4.534;2023-05-25T13:09:03;19.70;1.00
40253;DHT22;25972;51.854;4.534;2023-05-25T13:11:29;19.50;1.00
40253;DHT22;25972;51.854;4.534;2023-05-25T13:13:55;19.30;1.00
40253;DHT22;25972;51.854;4.534;2023-05-25T13:16:21;19.20;1.00
40253;DHT22;25972;51.854;4.534;2023-05-25T13:18:50;19.00;1.00
40253;DHT22;25972;51.854;4.534;2023-05-25T13:21:16;18.90;1.00
40253;DHT22;25972;51.854;4.534;2023-05-25T13:23:43;19.10;1.00
40253;DHT22;25972;51.854;4.534;2023-05-25T13:26:09;19.00;1.00
40253;DHT22;25972;51.854;4.534;2023-05-25T13:28:35;19.00;1.00
40253;DHT22;25972;51.854;4.534;2023-05-25T13:31:01;19.10;1.00
40253;DHT22;25972;51.854;4.534;2023-05-25T13:33:27;19.10;1.00
40253;DHT22;25972;51.854;4.534;2023-05-25T13:35:53;18.90;1.00
40253;DHT22;25972;51.854;4.534;2023-05-25T13:38:26;18.70;1.00
40253;DHT22;25972;51.854;4.534;2023-05-25T13:40:54;18.70;1.00
40253;DHT22;25972;51.854;4.534;2023-05-25T13:43:19;18.70;1.00
40253;DHT22;25972;51.854;4.534;2023-05-25T13:45:45;18.60;1.00
40253;DHT22;25972;51.854;4.534;2023-05-25T13:48:12;18.70;1.00
40253;DHT22;25972;51.854;4.534;2023-05-25T13:50:38;18.80;1.00
40253;DHT22;25972;51.854;4.534;2023-05-25T13:53:04;19.20;1.00
40253;DHT22;25972;51.854;4.534;2023-05-25T13:55:30;19.00;1.00
40253;DHT22;25972;51.854;4.534;2023-05-25T13:57:55;19.00;1.00
40253;DHT22;25972;51.854;4.534;2023-05-25T14:00:21;19.00;1.00
40253;DHT22;25972;51.854;4.534;2023-05-25T14:02:47;18.90;1.00
40253;DHT22;25972;51.854;4.534;2023-05-25T14:05:13;18.60;1.00
40253;DHT22;25972;51.854;4.534;2023-05-25T14:07:39;18.50;1.00
40253;DHT22;25972;51.854;4.534;2023-05-25T14:10:06;18.50;1.00
40253;DHT22;25972;51.854;4.534;2023-05-25T14:12:32;18.50;1.00
40253;DHT22;25972;51.854;4.534;2023-05-25T14:14:58;18.60;1.00
40253;DHT22;25972;51.854;4.534;2023-05-25T14:17:24;18.80;1.00
40253;DHT22;25972;51.854;4.534;2023-05-25T14:19:50;18.80;1.00
40253;DHT22;25972;51.854;4.534;2023-05-25T14:22:15;18.80;1.00
40253;DHT22;25972;51.854;4.534;2023-05-25T14:24:41;18.60;1.00
40253;DHT22;25972;51.854;4.534;2023-05-25T14:27:07;18.80;1.00
40253;DHT22;25972;51.854;4.534;2023-05-25T14:29:33;19.00;1.00
40253;DHT22;25972;51.854;4.534;2023-05-25T14:31:59;19.20;1.00
40253;DHT22;25972;51.854;4.534;2023-05-25T14:34:25;19.20;1.00
40253;DHT22;25972;51.854;4.534;2023-05-25T14:36:51;19.50;1.00
40253;DHT22;25972;51.854;4.534;2023-05-25T14:39:16;19.70;1.00
40253;DHT22;25972;51.854;4.534;2023-05-25T14:41:42;19.50;1.00
40253;DHT22;25972;51.854;4.534;2023-05-25T14:44:08;19.30;1.00
40253;DHT22;25972;51.854;4.534;2023-05-25T14:46:34;19.40;1.00
40253;DHT22;25972;51.854;4.534;2023-05-25T14:49:00;19.30;1.00
40253;DHT22;25972;51.854;4.534;2023-05-25T14:51:26;19.20;1.00
40253;DHT22;25972;51.854;4.534;2023-05-25T14:53:51;19.30;1.00
40253;DHT22;25972;51.854;4.534;2023-05-25T14:56:19;19.20;1.00
40253;DHT22;25972;51.854;4.534;2023-05-25T14:58:47;19.20;1.00
40253;DHT22;25972;51.854;4.534;2023-05-25T15:01:12;19.20;1.00
40253;DHT22;25972;51.854;4.534;2023-05-25T15:03:38;19.20;1.00
40253;DHT22;25972;51.854;4.534;2023-05-25T15:06:04;19.00;1.00
40253;DHT22;25972;51.854;4.534;2023-05-25T15:08:31;19.00;1.00
40253;DHT22;25972;51.854;4.534;2023-05-25T15:10:57;18.90;1.00
40253;DHT22;25972;51.854;4.534;2023-05-25T15:13:23;18.70;1.00
40253;DHT22;25972;51.854;4.534;2023-05-25T15:15:49;18.60;1.00
40253;DHT22;25972;51.854;4.534;2023-05-25T15:18:19;18.60;1.00
40253;DHT22;25972;51.854;4.534;2023-05-25T15:20:45;18.60;1.00
40253;DHT22;25972;51.854;4.534;2023-05-25T15:23:10;18.60;1.00
40253;DHT22;25972;51.854;4.534;2023-05-25T15:25:36;18.70;1.00
40253;DHT22;25972;51.854;4.534;2023-05-25T15:28:02;18.80;1.00
40253;DHT22;25972;51.854;4.534;2023-05-25T15:30:28;18.80;1.00
40253;DHT22;25972;51.854;4.534;2023-05-25T15:32:54;18.80;1.00
40253;DHT22;25972;51.854;4.534;2023-05-25T15:35:20;18.90;1.00
40253;DHT22;25972;51.854;4.534;2023-05-25T15:37:46;18.80;1.00
40253;DHT22;25972;51.854;4.534;2023-05-25T15:40:13;18.80;1.00
40253;DHT22;25972;51.854;4.534;2023-05-25T15:42:38;18.70;1.00
40253;DHT22;25972;51.854;4.534;2023-05-25T15:45:05;18.70;1.00
40253;DHT22;25972;51.854;4.534;2023-05-25T15:47:31;18.70;1.00
40253;DHT22;25972;51.854;4.534;2023-05-25T15:49:57;18.70;1.00
40253;DHT22;25972;51.854;4.534;2023-05-25T15:52:24;18.60;1.00
40253;DHT22;25972;51.854;4.534;2023-05-25T15:54:50;18.50;1.00
40253;DHT22;25972;51.854;4.534;2023-05-25T15:57:16;18.50;1.00
40253;DHT22;25972;51.854;4.534;2023-05-25T15:59:45;18.50;1.00
40253;DHT22;25972;51.854;4.534;2023-05-25T16:02:12;18.60;1.00